Time;durP1;ratioP1;P1;durP2;ratioP2;P2;SDS_P1;SDS_P2;PMS_P1;PMS_P2;Temp;Humidity;BMP_temperature;BMP_pressure;BME280_temperature;BME280_humidity;BME280_pressure;Samples;Min_cycle;Max_cycle;Signal;HPM_P1;HPM_P2
2022/12/05 00:00:30;;;;;;;22.63;14.70;;;5.00;99.90;;;;;;5063073;28;20476;-73
2022/12/05 00:02:56;;;;;;;22.67;14.80;;;5.00;99.90;;;;;;5060275;28;20037;-73
2022/12/05 00:05:22;;;;;;;24.48;14.85;;;5.00;99.90;;;;;;5065856;28;20055;-73
2022/12/05 00:07:47;;;;;;;22.88;14.68;;;5.00;99.90;;;;;;5058291;28;20048;-73
2022/12/05 00:10:13;;;;;;;22.90;13.60;;;5.00;99.90;;;;;;5059589;28;20247;-73
2022/12/05 00:12:39;;;;;;;22.80;13.63;;;5.00;99.90;;;;;;5042877;28;20045;-73
2022/12/05 00:15:05;;;;;;;22.25;13.35;;;5.00;99.90;;;;;;5034438;28;20040;-73
2022/12/05 00:17:32;;;;;;;20.90;12.43;;;5.00;99.90;;;;;;5055677;28;20072;-73
2022/12/05 00:19:57;;;;;;;17.58;12.25;;;5.00;99.90;;;;;;5063296;28;20101;-73
2022/12/05 00:22:23;;;;;;;20.30;13.82;;;5.10;99.90;;;;;;5061679;28;20052;-74
2022/12/05 00:24:49;;;;;;;22.65;14.02;;;5.10;99.90;;;;;;5044360;28;20043;-73
2022/12/05 00:27:14;;;;;;;19.35;12.77;;;5.10;99.90;;;;;;5064654;28;20391;-73
2022/12/05 00:29:40;;;;;;;24.45;15.05;;;5.10;99.90;;;;;;5062606;28;20044;-74
2022/12/05 00:32:06;;;;;;;22.95;14.65;;;5.20;99.90;;;;;;5057419;28;20501;-74
2022/12/05 00:34:31;;;;;;;21.02;13.82;;;5.20;99.90;;;;;;5063262;28;20134;-73
2022/12/05 00:36:57;;;;;;;20.90;13.65;;;5.20;99.90;;;;;;5059706;28;20124;-73
2022/12/05 00:39:23;;;;;;;21.67;14.00;;;5.20;99.90;;;;;;5061615;28;20045;-73
2022/12/05 00:41:48;;;;;;;21.08;13.40;;;5.20;99.90;;;;;;5046415;28;21763;-73
2022/12/05 00:44:14;;;;;;;21.25;13.60;;;5.20;99.90;;;;;;5046100;28;20123;-73
2022/12/05 00:46:40;;;;;;;22.40;13.88;;;5.20;99.90;;;;;;5061572;28;20484;-73
2022/12/05 00:49:07;;;;;;;22.20;13.88;;;5.20;99.90;;;;;;5061607;28;20503;-74
2022/12/05 00:51:36;;;;;;;25.55;15.05;;;5.20;99.90;;;;;;5065278;28;20385;-73
2022/12/05 00:54:05;;;;;;;22.77;14.40;;;5.20;99.90;;;;;;5056963;28;20060;-73
2022/12/05 00:56:31;;;;;;;27.83;16.85;;;5.20;99.90;;;;;;5060615;28;20048;-73
2022/12/05 00:58:58;;;;;;;25.08;15.52;;;5.20;99.90;;;;;;5044815;28;20043;-73
2022/12/05 01:01:31;;;;;;;25.00;15.30;;;5.30;99.90;;;;;;5060233;28;20095;-73
2022/12/05 01:03:58;;;;;;;25.08;16.20;;;5.20;99.90;;;;;;5056049;28;20056;-73
2022/12/05 01:06:25;;;;;;;20.15;13.70;;;5.30;99.90;;;;;;5053619;28;20044;-73
2022/12/05 01:08:53;;;;;;;22.33;14.40;;;5.30;99.90;;;;;;5055574;28;20040;-73
2022/12/05 01:11:19;;;;;;;25.05;15.45;;;5.30;99.90;;;;;;5061251;28;20045;-73
2022/12/05 01:13:45;;;;;;;23.65;14.90;;;5.30;99.90;;;;;;5059494;28;20046;-74
2022/12/05 01:16:21;;;;;;;20.73;13.60;;;5.30;99.90;;;;;;5032690;28;20107;-73
2022/12/05 01:18:47;;;;;;;21.23;13.67;;;5.30;99.90;;;;;;5061513;28;20119;-74
2022/12/05 01:21:13;;;;;;;19.17;12.35;;;5.30;99.90;;;;;;5065111;28;20498;-73
2022/12/05 01:23:39;;;;;;;19.17;11.48;;;5.30;99.90;;;;;;5060101;28;20040;-73
2022/12/05 01:26:08;;;;;;;23.55;14.23;;;5.30;99.90;;;;;;5041736;28;20047;-73
2022/12/05 01:28:35;;;;;;;18.52;12.02;;;5.40;99.90;;;;;;5065119;28;20053;-73
2022/12/05 01:31:05;;;;;;;18.58;12.38;;;5.40;99.90;;;;;;5059999;28;20037;-73
2022/12/05 01:33:31;;;;;;;18.98;12.77;;;5.40;99.90;;;;;;5062380;28;20045;-73
2022/12/05 01:35:57;;;;;;;15.55;10.73;;;5.40;99.90;;;;;;5059071;28;20129;-73
2022/12/05 01:38:23;;;;;;;16.00;11.07;;;5.40;99.90;;;;;;5043467;28;20076;-73
2022/12/05 01:40:49;;;;;;;17.13;11.23;;;5.50;99.90;;;;;;5056447;28;20032;-73
2022/12/05 01:43:17;;;;;;;16.83;11.35;;;5.50;99.90;;;;;;5054405;28;20036;-73
2022/12/05 01:45:45;;;;;;;17.42;10.90;;;5.50;99.90;;;;;;5060490;28;20044;-73
2022/12/05 01:48:17;;;;;;;15.52;11.52;;;5.50;99.90;;;;;;5063336;28;20125;-73
2022/12/05 01:50:44;;;;;;;14.82;11.00;;;5.60;99.90;;;;;;5057510;28;20585;-73
2022/12/05 01:53:09;;;;;;;14.02;9.10;;;5.60;99.90;;;;;;5043670;28;20040;-73
2022/12/05 01:55:36;;;;;;;11.43;8.68;;;5.60;99.90;;;;;;5038568;28;20392;-73
2022/12/05 01:58:05;;;;;;;13.60;9.13;;;5.70;99.90;;;;;;5058848;28;20060;-73
2022/12/05 02:00:31;;;;;;;11.45;8.60;;;5.70;99.90;;;;;;5063276;28;20075;-73
2022/12/05 02:03:06;;;;;;;11.32;8.52;;;5.70;99.90;;;;;;5056639;28;20575;-74
2022/12/05 02:05:34;;;;;;;13.93;9.32;;;5.70;99.90;;;;;;5056029;28;20773;-74
2022/12/05 02:08:04;;;;;;;12.93;8.70;;;5.70;99.90;;;;;;5057437;28;20111;-74
2022/12/05 02:10:40;;;;;;;12.55;8.82;;;5.70;99.90;;;;;;5060052;28;20052;-73
2022/12/05 02:13:40;;;;;;;13.27;9.43;;;5.80;99.90;;;;;;5056770;28;20107;-73
2022/12/05 02:16:32;;;;;;;13.55;8.32;;;5.70;99.90;;;;;;5059340;28;20036;-73
2022/12/05 02:19:11;;;;;;;12.88;8.70;;;5.80;99.90;;;;;;5059585;28;20403;-74
2022/12/05 02:22:00;;;;;;;13.02;8.40;;;5.70;99.90;;;;;;5047720;28;20052;-73
2022/12/05 02:25:10;;;;;;;9.65;7.45;;;5.80;99.90;;;;;;5059439;28;20882;-73
2022/12/05 02:28:14;;;;;;;10.10;7.53;;;5.80;99.90;;;;;;5007157;28;20044;-74
2022/12/05 02:30:51;;;;;;;11.88;7.85;;;5.70;99.90;;;;;;5032539;28;20057;-73
2022/12/05 02:33:28;;;;;;;;;;;5.70;99.90;;;;;;5055932;28;20139;-73
2022/12/05 02:36:11;;;;;;;11.10;7.30;;;5.70;99.90;;;;;;5034743;28;19939;-73
2022/12/05 02:38:51;;;;;;;12.48;7.75;;;5.70;99.90;;;;;;5051354;28;20045;-73
2022/12/05 02:41:39;;;;;;;8.93;6.75;;;5.70;99.90;;;;;;5061488;28;20053;-74
2022/12/05 02:44:23;;;;;;;9.48;7.22;;;5.70;99.90;;;;;;5057762;28;20074;-74
2022/12/05 02:46:51;;;;;;;12.70;7.90;;;5.70;99.90;;;;;;5044065;28;20470;-74
2022/12/05 02:49:22;;;;;;;8.73;7.07;;;5.70;99.90;;;;;;5041020;28;20044;-73
2022/12/05 02:51:53;;;;;;;10.43;6.30;;;5.70;99.90;;;;;;5055853;28;20149;-74
2022/12/05 02:54:24;;;;;;;9.70;6.60;;;5.60;99.90;;;;;;5042096;28;20048;-74
2022/12/05 02:56:51;;;;;;;11.00;6.82;;;5.60;99.90;;;;;;5056522;28;20048;-74
2022/12/05 02:59:20;;;;;;;10.98;6.80;;;5.60;99.90;;;;;;5057471;28;20040;-74
2022/12/05 03:01:46;;;;;;;9.32;6.32;;;5.60;99.90;;;;;;5039024;28;20045;-74
2022/12/05 03:04:13;;;;;;;6.50;5.10;;;5.60;99.90;;;;;;5041588;28;20061;-73
2022/12/05 03:06:47;;;;;;;8.50;6.47;;;5.60;99.90;;;;;;5040348;28;20044;-73
2022/12/05 03:09:19;;;;;;;8.75;6.07;;;5.60;99.90;;;;;;5056060;28;20036;-73
2022/12/05 03:11:52;;;;;;;8.38;5.78;;;5.60;99.90;;;;;;5034796;28;20041;-73
2022/12/05 03:14:26;;;;;;;8.65;5.50;;;5.60;99.90;;;;;;5054991;28;20049;-73
2022/12/05 03:16:56;;;;;;;8.02;5.68;;;5.60;99.90;;;;;;5057028;28;20044;-73
2022/12/05 03:19:45;;;;;;;7.68;5.65;;;5.60;99.90;;;;;;5042535;28;20048;-73
2022/12/05 03:22:24;;;;;;;8.52;6.05;;;5.60;99.90;;;;;;5058499;28;20124;-73
2022/12/05 03:24:50;;;;;;;8.20;6.05;;;5.60;99.90;;;;;;5039957;28;20040;-73
2022/12/05 03:27:34;;;;;;;7.57;5.88;;;5.60;99.90;;;;;;5062904;28;20043;-74
2022/12/05 03:30:05;;;;;;;7.32;5.45;;;5.50;99.90;;;;;;5065988;28;20238;-73
2022/12/05 03:33:10;;;;;;;8.45;5.90;;;5.50;99.90;;;;;;5040113;28;20261;-73
2022/12/05 03:35:59;;;;;;;8.43;6.45;;;5.50;99.90;;;;;;5063657;28;20499;-73
2022/12/05 03:38:46;;;;;;;8.32;6.07;;;5.60;99.90;;;;;;5061234;28;20495;-73
2022/12/05 03:41:34;;;;;;;10.13;6.78;;;5.50;99.90;;;;;;5021011;28;20131;-73
2022/12/05 03:44:20;;;;;;;7.30;6.07;;;5.50;99.90;;;;;;5063294;28;20041;-74
2022/12/05 03:46:57;;;;;;;8.52;5.63;;;5.50;99.90;;;;;;5057511;28;20029;-73
2022/12/05 03:49:39;;;;;;;9.25;6.45;;;5.50;99.90;;;;;;5061623;28;20028;-73
2022/12/05 03:52:44;;;;;;;7.78;5.72;;;5.50;99.90;;;;;;5060269;28;20068;-73
2022/12/05 03:55:12;;;;;;;6.18;5.13;;;5.50;99.90;;;;;;5062511;28;20040;-73
2022/12/05 03:57:58;;;;;;;6.57;5.10;;;5.40;99.90;;;;;;5031951;28;20044;-73
2022/12/05 04:00:28;;;;;;;8.93;6.45;;;5.50;99.90;;;;;;5057910;28;20458;-75
2022/12/05 04:03:19;;;;;;;8.90;6.38;;;5.50;99.90;;;;;;5058050;28;20036;-74
2022/12/05 04:05:49;;;;;;;8.98;6.13;;;5.50;99.90;;;;;;5062755;28;20124;-73
2022/12/05 04:08:25;;;;;;;8.13;6.10;;;5.40;99.90;;;;;;5062396;28;20037;-73
2022/12/05 04:10:54;;;;;;;9.95;6.50;;;5.50;99.90;;;;;;5057304;28;20036;-73
2022/12/05 04:13:33;;;;;;;8.77;6.55;;;5.50;99.90;;;;;;5041734;28;20047;-73
2022/12/05 04:18:59;;;;;;;8.75;6.07;;;5.40;99.90;;;;;;5059257;28;20068;-73
2022/12/05 04:21:38;;;;;;;10.75;5.72;;;5.40;99.90;;;;;;5053895;28;20036;-73
2022/12/05 04:27:10;;;;;;;7.07;4.43;;;5.40;99.90;;;;;;5058330;28;20045;-71
2022/12/05 04:30:02;;;;;;;8.25;5.30;;;5.40;99.90;;;;;;5056739;28;20098;-71
2022/12/05 04:32:53;;;;;;;11.02;6.88;;;5.40;99.90;;;;;;5058796;28;20051;-71
2022/12/05 04:35:25;;;;;;;11.68;7.07;;;5.40;99.90;;;;;;5030871;28;20056;-71
2022/12/05 04:37:54;;;;;;;10.38;6.60;;;5.50;99.90;;;;;;5059535;28;20128;-71
2022/12/05 04:40:32;;;;;;;10.98;7.28;;;5.50;99.90;;;;;;5060725;28;20064;-71
2022/12/05 04:43:01;;;;;;;8.80;6.07;;;5.50;99.90;;;;;;5060359;28;20113;-71
2022/12/05 04:45:27;;;;;;;10.20;6.63;;;5.50;99.90;;;;;;5076106;28;20080;-71
2022/12/05 04:47:58;;;;;;;9.40;5.25;;;5.50;99.90;;;;;;5060510;28;20037;-71
2022/12/05 04:50:29;;;;;;;8.77;6.32;;;5.40;99.90;;;;;;5049115;28;20139;-72
2022/12/05 04:52:57;;;;;;;10.38;6.72;;;5.50;99.90;;;;;;5058594;28;20121;-71
2022/12/05 04:55:24;;;;;;;9.35;6.57;;;5.50;99.90;;;;;;5054696;28;20055;-71
2022/12/05 04:58:16;;;;;;;10.23;6.63;;;5.50;99.90;;;;;;5061882;28;20048;-71
2022/12/05 05:00:51;;;;;;;9.35;5.82;;;5.50;99.90;;;;;;5053898;28;20119;-71
2022/12/05 05:03:20;;;;;;;11.38;6.72;;;5.50;99.90;;;;;;5041842;28;20051;-71
2022/12/05 05:05:51;;;;;;;11.10;6.68;;;5.50;99.90;;;;;;5056344;28;20045;-71
2022/12/05 05:08:24;;;;;;;9.07;6.25;;;5.50;99.90;;;;;;5059732;28;20044;-71
2022/12/05 05:11:13;;;;;;;7.47;5.63;;;5.50;99.90;;;;;;5060463;28;20063;-71
2022/12/05 05:13:39;;;;;;;8.40;6.43;;;5.50;99.90;;;;;;5056164;28;20116;-72
2022/12/05 05:16:06;;;;;;;10.10;6.55;;;5.60;99.90;;;;;;5054791;28;20127;-71
2022/12/05 05:18:32;;;;;;;7.80;5.82;;;5.50;99.90;;;;;;5056684;28;20049;-71
2022/12/05 05:20:58;;;;;;;9.25;5.80;;;5.50;99.90;;;;;;5056755;28;20040;-74
2022/12/05 05:23:24;;;;;;;11.15;6.55;;;5.50;99.90;;;;;;5057117;28;20059;-73
2022/12/05 05:25:54;;;;;;;9.25;5.82;;;5.50;99.90;;;;;;5059964;28;20036;-74
2022/12/05 05:28:20;;;;;;;8.23;5.50;;;5.50;99.90;;;;;;5060637;28;20036;-73
2022/12/05 05:30:46;;;;;;;7.45;5.75;;;5.50;99.90;;;;;;5057156;28;20040;-73
2022/12/05 05:33:11;;;;;;;13.10;6.25;;;5.50;99.90;;;;;;5054792;28;20056;-73
2022/12/05 05:35:38;;;;;;;9.65;6.35;;;5.50;99.90;;;;;;5061278;28;20040;-73
2022/12/05 05:38:04;;;;;;;9.48;6.03;;;5.50;99.90;;;;;;5056307;28;20424;-73
2022/12/05 05:40:30;;;;;;;7.40;5.78;;;5.50;99.90;;;;;;5031981;28;20470;-73
2022/12/05 05:42:56;;;;;;;11.27;6.63;;;5.50;99.90;;;;;;5054375;28;21391;-73
2022/12/05 05:45:21;;;;;;;8.77;5.63;;;5.60;99.90;;;;;;5062553;28;20037;-73
2022/12/05 05:47:48;;;;;;;8.90;5.75;;;5.50;99.90;;;;;;5067458;28;20044;-74
2022/12/05 05:50:15;;;;;;;7.50;5.43;;;5.50;99.90;;;;;;5054316;28;20060;-74
2022/12/05 05:52:41;;;;;;;8.98;5.65;;;5.50;99.90;;;;;;5037879;28;20045;-74
2022/12/05 05:55:08;;;;;;;8.35;5.90;;;5.50;99.90;;;;;;5057153;28;20052;-74
2022/12/05 05:57:34;;;;;;;8.30;5.53;;;5.50;99.90;;;;;;5060360;28;20044;-74
2022/12/05 06:00:02;;;;;;;8.48;5.70;;;5.50;99.90;;;;;;5042971;28;20052;-74
2022/12/05 06:02:33;;;;;;;7.20;5.15;;;5.50;99.90;;;;;;5050393;28;20049;-74
2022/12/05 06:04:59;;;;;;;10.32;6.13;;;5.50;99.90;;;;;;5064239;28;20123;-74
2022/12/05 06:07:24;;;;;;;10.27;6.05;;;5.60;99.90;;;;;;5053386;28;20123;-74
2022/12/05 06:09:50;;;;;;;10.20;6.28;;;5.60;99.90;;;;;;5049804;28;20060;-74
2022/12/05 06:12:16;;;;;;;8.85;5.38;;;5.60;99.90;;;;;;5066483;28;20041;-74
2022/12/05 06:14:41;;;;;;;10.45;5.97;;;5.60;99.90;;;;;;5054050;28;20435;-73
2022/12/05 06:17:07;;;;;;;8.80;6.20;;;5.60;99.90;;;;;;5055335;28;20081;-73
2022/12/05 06:19:33;;;;;;;8.60;5.95;;;5.60;99.90;;;;;;5054608;28;20041;-73
2022/12/05 06:21:58;;;;;;;10.65;5.97;;;5.50;99.90;;;;;;5037211;28;20032;-76
2022/12/05 06:24:24;;;;;;;9.73;6.10;;;5.60;99.90;;;;;;5059446;28;20033;-74
2022/12/05 06:26:50;;;;;;;8.20;5.43;;;5.60;99.90;;;;;;5055483;28;20079;-75
2022/12/05 06:29:15;;;;;;;8.20;5.47;;;5.60;99.90;;;;;;5049829;28;20080;-75
2022/12/05 06:31:41;;;;;;;9.57;5.82;;;5.60;99.90;;;;;;5058186;28;20059;-75
2022/12/05 06:34:07;;;;;;;9.93;5.72;;;5.60;99.90;;;;;;5063707;28;20044;-74
2022/12/05 06:36:32;;;;;;;8.43;5.85;;;5.60;99.90;;;;;;5057962;28;20040;-74
2022/12/05 06:38:59;;;;;;;8.70;5.78;;;5.60;99.90;;;;;;5065754;28;20385;-75
2022/12/05 06:41:26;;;;;;;8.95;5.25;;;5.60;99.90;;;;;;5068211;28;20093;-75
2022/12/05 06:43:57;;;;;;;8.55;5.32;;;5.60;99.90;;;;;;5054554;28;20045;-75
2022/12/05 06:46:25;;;;;;;8.93;5.32;;;5.60;99.90;;;;;;5049157;28;20036;-75
2022/12/05 06:48:55;;;;;;;10.27;5.47;;;5.60;99.90;;;;;;5063139;28;20048;-75
2022/12/05 06:51:21;;;;;;;10.50;6.32;;;5.60;99.90;;;;;;5063168;28;20136;-74
2022/12/05 06:53:47;;;;;;;10.45;6.57;;;5.60;99.90;;;;;;5039108;28;20052;-75
2022/12/05 06:56:16;;;;;;;9.82;6.40;;;5.50;99.90;;;;;;5059724;28;20094;-75
2022/12/05 06:58:43;;;;;;;14.27;7.38;;;5.70;99.90;;;;;;5063812;28;20041;-74
2022/12/05 07:03:57;;;;;;;9.57;6.30;;;5.60;99.90;;;;;;5057631;28;20129;-75
2022/12/05 07:06:22;;;;;;;11.93;6.75;;;5.60;99.90;;;;;;5052948;28;20045;-75
2022/12/05 07:08:48;;;;;;;12.07;6.75;;;5.60;99.90;;;;;;5055167;28;20033;-74
2022/12/05 07:11:14;;;;;;;14.07;7.18;;;5.60;99.90;;;;;;5061725;28;20036;-77
2022/12/05 07:13:39;;;;;;;11.20;6.82;;;5.60;99.90;;;;;;5060670;28;20047;-74
2022/12/05 07:16:08;;;;;;;16.08;7.15;;;5.60;99.90;;;;;;5054389;28;20045;-74
2022/12/05 07:18:35;;;;;;;13.23;6.72;;;5.60;99.90;;;;;;5057301;28;20408;-73
2022/12/05 07:21:04;;;;;;;10.35;5.97;;;5.60;99.90;;;;;;5052337;28;20070;-73
2022/12/05 07:23:30;;;;;;;12.55;6.40;;;5.60;99.90;;;;;;5052699;28;20533;-74
2022/12/05 07:25:56;;;;;;;11.13;6.50;;;5.60;99.90;;;;;;5053648;28;20041;-74
2022/12/05 07:28:22;;;;;;;12.23;6.20;;;5.60;99.90;;;;;;5053183;28;20372;-74
2022/12/05 07:30:48;;;;;;;8.77;5.80;;;5.60;99.90;;;;;;5052696;28;20076;-74
2022/12/05 07:33:14;;;;;;;10.68;6.47;;;5.60;99.90;;;;;;5052247;28;20084;-74
2022/12/05 07:35:39;;;;;;;14.00;7.88;;;5.60;99.90;;;;;;5052102;28;20052;-74
2022/12/05 07:38:05;;;;;;;11.30;7.15;;;5.70;99.90;;;;;;5052562;28;20125;-74
2022/12/05 07:40:31;;;;;;;11.65;6.90;;;5.70;99.90;;;;;;5050941;28;20036;-74
2022/12/05 07:42:57;;;;;;;10.80;6.57;;;5.70;99.90;;;;;;5072284;28;20044;-74
2022/12/05 07:45:23;;;;;;;11.82;6.88;;;5.70;99.90;;;;;;5072626;28;20049;-74
2022/12/05 07:47:49;;;;;;;13.25;6.60;;;5.70;99.90;;;;;;5072527;28;20403;-74
2022/12/05 07:50:15;;;;;;;10.70;6.13;;;5.70;99.90;;;;;;5072391;28;20072;-74
2022/12/05 07:52:41;;;;;;;11.00;6.40;;;5.70;99.90;;;;;;5055445;28;20044;-74
2022/12/05 07:55:07;;;;;;;13.80;6.00;;;5.70;99.90;;;;;;5072115;28;20106;-74
2022/12/05 07:57:33;;;;;;;;;;;5.80;99.90;;;;;;5072088;28;20043;-74
2022/12/05 07:59:58;;;;;;;9.63;6.05;;;5.80;99.90;;;;;;5071891;28;19917;-74
2022/12/05 08:02:24;;;;;;;9.70;5.47;;;5.70;99.90;;;;;;5071753;28;20048;-74
2022/12/05 08:04:50;;;;;;;9.65;5.90;;;5.80;99.90;;;;;;5071213;28;20162;-74
2022/12/05 08:07:15;;;;;;;11.15;6.13;;;5.80;99.90;;;;;;5054932;28;20552;-74
2022/12/05 08:09:41;;;;;;;12.77;6.47;;;5.80;99.90;;;;;;5055234;28;20048;-74
2022/12/05 08:12:07;;;;;;;12.10;6.50;;;5.80;99.90;;;;;;5071737;28;20123;-74
2022/12/05 08:14:33;;;;;;;11.90;6.45;;;5.80;99.90;;;;;;5038829;28;20052;-74
2022/12/05 08:16:58;;;;;;;9.77;5.88;;;5.80;99.90;;;;;;5038526;28;20054;-74
2022/12/05 08:19:24;;;;;;;12.00;6.20;;;5.80;99.90;;;;;;5055058;28;20066;-72
2022/12/05 08:21:51;;;;;;;8.65;5.70;;;5.80;99.90;;;;;;5055301;28;20052;-72
2022/12/05 08:24:17;;;;;;;12.57;6.70;;;5.80;99.90;;;;;;5071330;28;20125;-72
2022/12/05 08:26:42;;;;;;;11.15;5.63;;;5.80;99.90;;;;;;5071520;28;20044;-72
2022/12/05 08:29:11;;;;;;;11.90;6.65;;;5.80;99.90;;;;;;5071263;28;20041;-72
2022/12/05 08:31:46;;;;;;;11.50;6.07;;;5.80;99.90;;;;;;5071255;28;20109;-72
2022/12/05 08:34:13;;;;;;;9.77;5.90;;;5.80;99.90;;;;;;5057264;28;20047;-72
2022/12/05 08:36:39;;;;;;;9.85;5.38;;;5.80;99.90;;;;;;5034197;28;20512;-71
2022/12/05 08:39:07;;;;;;;9.82;5.97;;;5.80;99.90;;;;;;5034877;28;20056;-71
2022/12/05 08:41:33;;;;;;;11.80;6.40;;;5.80;99.90;;;;;;5050886;28;20045;-72
2022/12/05 08:44:04;;;;;;;9.23;5.80;;;5.80;99.90;;;;;;5034706;28;20488;-71
2022/12/05 08:46:32;;;;;;;10.10;6.00;;;5.70;99.90;;;;;;5050629;28;20147;-71
2022/12/05 08:48:58;;;;;;;12.40;6.57;;;5.80;99.90;;;;;;5050973;28;20123;-72
2022/12/05 08:51:24;;;;;;;12.45;6.90;;;5.70;99.90;;;;;;5053071;28;20612;-71
2022/12/05 08:53:50;;;;;;;8.82;5.85;;;5.70;99.90;;;;;;5070936;28;20449;-71
2022/12/05 08:56:16;;;;;;;9.35;5.90;;;5.70;99.90;;;;;;5065967;28;20041;-71
2022/12/05 08:58:41;;;;;;;10.43;6.40;;;5.70;99.90;;;;;;5050374;28;20472;-71
2022/12/05 09:01:11;;;;;;;9.93;5.68;;;5.70;99.90;;;;;;5050422;28;20506;-70
2022/12/05 09:03:37;;;;;;;11.40;6.60;;;5.70;99.90;;;;;;5050552;28;20052;-72
2022/12/05 09:06:13;;;;;;;9.82;5.78;;;5.70;99.90;;;;;;5050229;28;20041;-71
2022/12/05 09:08:40;;;;;;;11.18;5.90;;;5.70;99.90;;;;;;5034017;28;20040;-70
2022/12/05 09:11:25;;;;;;;10.10;5.75;;;5.70;99.90;;;;;;5050114;28;20087;-72
2022/12/05 09:13:52;;;;;;;14.93;7.95;;;5.70;99.90;;;;;;5050546;28;20060;-71
2022/12/05 09:16:24;;;;;;;14.63;7.15;;;5.80;99.90;;;;;;5032909;28;20072;-71
2022/12/05 09:18:50;;;;;;;12.70;6.97;;;5.80;99.90;;;;;;5050207;28;20048;-71
2022/12/05 09:21:19;;;;;;;12.43;7.15;;;5.80;99.90;;;;;;5050167;28;20452;-71
2022/12/05 09:23:45;;;;;;;10.63;6.85;;;5.70;99.90;;;;;;5050141;28;20048;-72
2022/12/05 09:26:14;;;;;;;12.70;7.15;;;5.80;99.90;;;;;;5050037;28;20044;-72
2022/12/05 09:28:41;;;;;;;13.07;7.00;;;5.80;99.90;;;;;;5050086;28;20044;-71
2022/12/05 09:31:10;;;;;;;12.23;6.90;;;5.80;99.90;;;;;;5049954;28;20045;-71
2022/12/05 09:33:37;;;;;;;11.75;6.68;;;5.80;99.90;;;;;;5049940;28;20041;-71
2022/12/05 09:36:15;;;;;;;14.85;7.35;;;5.80;99.90;;;;;;5050049;28;20047;-71
2022/12/05 09:38:42;;;;;;;12.23;6.60;;;5.80;99.90;;;;;;5049818;28;20049;-71
2022/12/05 09:41:11;;;;;;;10.98;6.38;;;5.80;99.90;;;;;;5054054;28;20501;-71
2022/12/05 09:43:46;;;;;;;10.30;5.53;;;5.80;99.90;;;;;;5069566;28;20491;-72
2022/12/05 09:46:36;;;;;;;10.30;6.38;;;5.80;99.90;;;;;;5069570;28;20040;-71
2022/12/05 09:49:04;;;;;;;13.00;7.40;;;5.80;99.90;;;;;;5052960;28;20107;-71
2022/12/05 09:51:31;;;;;;;10.77;6.72;;;5.80;99.90;;;;;;5069353;28;20056;-71
2022/12/05 09:53:56;;;;;;;11.38;6.90;;;5.80;99.90;;;;;;5069299;28;20122;-71
2022/12/05 09:56:31;;;;;;;8.88;5.72;;;5.80;99.90;;;;;;5068123;28;20082;-73
2022/12/05 09:58:59;;;;;;;8.63;5.15;;;5.80;99.90;;;;;;5068804;28;20048;-72
2022/12/05 10:01:41;;;;;;;10.75;6.07;;;5.80;99.90;;;;;;5067819;28;20506;-72
2022/12/05 10:04:33;;;;;;;12.27;6.82;;;5.80;99.90;;;;;;5069789;28;20044;-71
2022/12/05 10:07:09;;;;;;;11.48;6.75;;;5.80;99.90;;;;;;5068711;28;20040;-71
2022/12/05 10:10:01;;;;;;;10.95;6.65;;;5.80;99.90;;;;;;5053176;28;20180;-71
2022/12/05 10:12:52;;;;;;;12.07;6.70;;;5.80;99.90;;;;;;5069529;28;20087;-71
2022/12/05 10:15:27;;;;;;;13.27;7.05;;;5.80;99.90;;;;;;5068971;28;20537;-72
2022/12/05 10:18:00;;;;;;;11.75;6.93;;;5.80;99.90;;;;;;5069348;28;20051;-71
2022/12/05 10:20:57;;;;;;;10.00;6.57;;;5.80;99.90;;;;;;5069402;28;20036;-71
2022/12/05 10:23:42;;;;;;;14.02;6.72;;;5.80;99.90;;;;;;5068563;28;20045;-71
2022/12/05 10:26:11;;;;;;;10.75;6.15;;;5.80;99.90;;;;;;5068906;28;20545;-71
2022/12/05 10:28:53;;;;;;;9.57;5.60;;;5.70;99.90;;;;;;5069457;28;20110;-71
2022/12/05 10:31:24;;;;;;;12.75;6.72;;;5.80;99.90;;;;;;5069145;28;20398;-71
2022/12/05 10:34:02;;;;;;;12.32;6.38;;;5.70;99.90;;;;;;5052346;28;20041;-71
2022/12/05 10:36:29;;;;;;;8.07;5.50;;;5.80;99.90;;;;;;5068799;28;20122;-71
2022/12/05 10:38:56;;;;;;;8.43;5.70;;;5.70;99.90;;;;;;5068874;28;20080;-71
2022/12/05 10:41:22;;;;;;;9.98;5.80;;;5.70;99.90;;;;;;5052397;28;20127;-71
2022/12/05 10:43:48;;;;;;;8.30;5.47;;;5.70;99.90;;;;;;5052384;28;20113;-71
2022/12/05 10:46:15;;;;;;;10.23;6.57;;;5.80;99.90;;;;;;5069010;28;20388;-71
2022/12/05 10:48:41;;;;;;;9.73;6.38;;;5.70;99.90;;;;;;5052587;28;20040;-71
2022/12/05 10:51:14;;;;;;;14.45;7.20;;;5.70;99.90;;;;;;5051916;28;20082;-71
2022/12/05 10:53:48;;;;;;;8.32;5.93;;;5.80;99.90;;;;;;5069077;28;20045;-71
2022/12/05 10:56:41;;;;;;;11.35;6.18;;;5.70;99.90;;;;;;5052165;28;20157;-72
2022/12/05 10:59:09;;;;;;;12.15;6.43;;;5.70;99.90;;;;;;5069032;28;20249;-72
2022/12/05 11:01:36;;;;;;;10.13;6.55;;;5.70;99.90;;;;;;5068778;28;20048;-71
2022/12/05 11:04:21;;;;;;;10.07;6.05;;;5.70;99.90;;;;;;5068763;28;20063;-71
2022/12/05 11:06:53;;;;;;;8.63;5.97;;;5.70;99.90;;;;;;5068636;28;20527;-72
2022/12/05 11:09:22;;;;;;;9.55;6.40;;;5.70;99.90;;;;;;5052223;28;20498;-71
2022/12/05 11:12:13;;;;;;;8.10;5.00;;;5.70;99.90;;;;;;5071306;28;20103;-71
2022/12/05 11:14:38;;;;;;;7.68;5.03;;;5.70;99.90;;;;;;5069185;28;20182;-72
2022/12/05 11:17:05;;;;;;;10.38;6.10;;;5.80;99.90;;;;;;5069014;28;20127;-71
2022/12/05 11:19:37;;;;;;;11.20;6.45;;;5.70;99.90;;;;;;5068967;28;20142;-72
2022/12/05 11:22:04;;;;;;;10.10;5.63;;;5.80;99.90;;;;;;5068665;28;20044;-73
2022/12/05 11:24:37;;;;;;;10.70;5.70;;;5.80;99.90;;;;;;5052154;28;20041;-73
2022/12/05 11:27:30;;;;;;;11.35;5.50;;;5.80;99.90;;;;;;5068346;28;20059;-72
2022/12/05 11:30:00;;;;;;;9.13;5.13;;;5.80;99.90;;;;;;5068883;28;20051;-72
2022/12/05 11:32:28;;;;;;;5.88;4.07;;;5.70;99.90;;;;;;5068960;28;20123;-73
2022/12/05 11:35:12;;;;;;;7.45;4.75;;;5.70;99.90;;;;;;5068559;28;20434;-72
2022/12/05 11:38:02;;;;;;;8.88;5.38;;;5.80;99.90;;;;;;5069013;28;20051;-72
2022/12/05 11:40:38;;;;;;;7.55;4.88;;;5.70;99.90;;;;;;5055916;28;20507;-72
2022/12/05 11:43:22;;;;;;;9.88;4.63;;;5.70;99.90;;;;;;5071653;28;20078;-71
2022/12/05 11:46:20;;;;;;;8.40;5.05;;;5.70;99.90;;;;;;5071890;28;20037;-71
2022/12/05 11:48:45;;;;;;;7.07;4.35;;;5.70;99.90;;;;;;5031304;28;20052;-72
2022/12/05 11:51:34;;;;;;;10.77;4.93;;;5.70;99.90;;;;;;5071712;28;20060;-71
2022/12/05 11:54:16;;;;;;;7.47;4.30;;;5.70;99.90;;;;;;5071757;28;20287;-71
2022/12/05 11:56:45;;;;;;;6.60;4.43;;;5.80;99.90;;;;;;5071656;28;20065;-72
2022/12/05 12:00:12;;;;;;;7.03;4.18;;;5.80;99.90;;;;;;5072155;28;20097;-71
2022/12/05 12:03:13;;;;;;;7.95;4.03;;;5.70;99.90;;;;;;5003574;28;20050;-71
2022/12/05 12:05:49;;;;;;;7.13;3.78;;;5.70;99.90;;;;;;5072190;28;20127;-71
2022/12/05 12:08:15;;;;;;;7.32;3.67;;;5.70;99.90;;;;;;5072201;28;20419;-71
2022/12/05 12:11:06;;;;;;;5.27;3.67;;;5.70;99.90;;;;;;5071414;28;20061;-71
2022/12/05 12:13:44;;;;;;;7.53;4.20;;;5.70;99.90;;;;;;5071592;28;20278;-71
2022/12/05 12:16:36;;;;;;;6.30;4.13;;;5.70;99.90;;;;;;5072072;28;20146;-71
2022/12/05 12:19:16;;;;;;;9.15;4.20;;;5.70;99.90;;;;;;5054702;28;20041;-71
2022/12/05 12:21:47;;;;;;;7.22;4.13;;;5.70;99.90;;;;;;5071585;28;20043;-72
2022/12/05 12:24:47;;;;;;;8.07;4.25;;;5.70;99.90;;;;;;5071639;28;20127;-72
2022/12/05 12:27:53;;;;;;;4.10;3.10;;;5.70;99.90;;;;;;5071064;28;20131;-72
2022/12/05 12:30:20;;;;;;;6.25;3.50;;;5.70;99.90;;;;;;5068328;28;20059;-72
2022/12/05 12:33:01;;;;;;;5.15;3.47;;;5.70;99.90;;;;;;5072051;28;20123;-71
2022/12/05 12:35:45;;;;;;;5.85;3.20;;;5.70;99.90;;;;;;5071269;28;20040;-71
2022/12/05 12:38:13;;;;;;;7.25;3.92;;;5.70;99.90;;;;;;5070975;28;20041;-71
2022/12/05 12:40:42;;;;;;;6.57;3.92;;;5.70;99.90;;;;;;5054405;28;20036;-71
2022/12/05 12:43:28;;;;;;;5.53;3.53;;;5.70;99.90;;;;;;5071153;28;20484;-72
2022/12/05 12:46:04;;;;;;;4.80;3.00;;;5.70;99.90;;;;;;5070863;28;20048;-71
2022/12/05 12:48:51;;;;;;;5.55;3.33;;;5.70;99.90;;;;;;5070889;28;20051;-71
2022/12/05 12:51:17;;;;;;;4.82;2.97;;;5.80;99.90;;;;;;5070270;28;20186;-72
2022/12/05 12:54:02;;;;;;;4.10;2.70;;;5.70;99.90;;;;;;5071027;28;20060;-72
2022/12/05 12:56:27;;;;;;;7.38;3.58;;;5.70;99.90;;;;;;5053913;28;20045;-72
2022/12/05 12:59:01;;;;;;;4.17;2.90;;;5.70;99.90;;;;;;5070469;28;20052;-72
2022/12/05 13:01:41;;;;;;;4.22;3.05;;;5.80;99.90;;;;;;5070453;28;20283;-72
2022/12/05 13:04:18;;;;;;;6.07;2.83;;;5.70;99.90;;;;;;5070633;28;20092;-72
2022/12/05 13:06:57;;;;;;;5.05;3.05;;;5.70;99.90;;;;;;5070337;28;20044;-72
2022/12/05 13:09:30;;;;;;;4.88;2.90;;;5.70;99.90;;;;;;5070825;28;20380;-72
2022/12/05 13:12:01;;;;;;;4.32;2.80;;;5.80;99.90;;;;;;5070536;28;20484;-72
2022/12/05 13:14:30;;;;;;;5.13;2.92;;;5.80;99.90;;;;;;5070522;28;20172;-72
2022/12/05 13:16:58;;;;;;;4.47;2.65;;;5.70;99.90;;;;;;5070303;28;20080;-72
2022/12/05 13:19:36;;;;;;;6.72;2.80;;;5.70;99.90;;;;;;5070721;28;20060;-72
2022/12/05 13:22:04;;;;;;;8.18;3.45;;;5.70;99.90;;;;;;5070381;28;20083;-72
2022/12/05 13:24:30;;;;;;;7.00;4.63;;;5.70;99.90;;;;;;5070119;28;20056;-72